Time;durP1;ratioP1;P1;durP2;ratioP2;P2;SDS_P1;SDS_P2;PMS_P1;PMS_P2;Temp;Humidity;BMP_temperature;BMP_pressure;BME280_temperature;BME280_humidity;BME280_pressure;Samples;Min_cycle;Max_cycle;Signal;HPM_P1;HPM_P2
2022/04/03 00:01:24;;;;;;;;;18.50;16.75;;;;;8.40;38.49;101723.66;5022499;28;45495;-73
2022/04/03 00:03:49;;;;;;;;;16.75;16.75;;;;;8.18;38.34;101692.34;5019686;28;45498;-74
2022/04/03 00:06:15;;;;;;;;;14.50;12.25;;;;;8.09;38.80;101671.50;5019695;28;45416;-74
2022/04/03 00:08:40;;;;;;;;;16.50;14.50;;;;;8.33;38.43;101725.06;5019639;28;46860;-74
2022/04/03 00:11:06;;;;;;;;;17.00;17.00;;;;;8.28;38.08;101730.19;5016368;28;45364;-72
2022/04/03 00:13:31;;;;;;;;;22.75;20.50;;;;;8.01;38.12;101683.50;5015298;28;45522;-74
2022/04/03 00:15:57;;;;;;;;;15.25;14.00;;;;;8.16;37.89;101710.00;5015324;28;45391;-73
2022/04/03 00:18:22;;;;;;;;;18.00;16.00;;;;;7.91;38.41;101692.75;5014609;28;45622;-72
2022/04/03 00:20:48;;;;;;;;;17.75;15.00;;;;;8.16;38.98;101742.84;5026574;28;45520;-73
2022/04/03 00:23:14;;;;;;;;;13.00;13.00;;;;;8.17;38.72;101734.03;5021481;28;45548;-72
2022/04/03 00:25:39;;;;;;;;;15.50;15.50;;;;;8.09;38.44;101728.28;5015503;28;45648;-73
2022/04/03 00:28:06;;;;;;;;;15.75;14.25;;;;;8.12;39.32;101730.22;5017776;28;46560;-73
2022/04/03 00:30:32;;;;;;;;;21.50;18.50;;;;;8.04;38.96;101727.16;5016267;28;45626;-73
2022/04/03 00:32:58;;;;;;;;;16.25;13.50;;;;;8.03;39.38;101725.31;5029814;28;45710;-73
2022/04/03 00:35:23;;;;;;;;;21.00;16.50;;;;;8.05;39.57;101749.34;5015186;28;45697;-73
2022/04/03 00:37:49;;;;;;;;;15.75;12.25;;;;;7.90;39.11;101714.84;5015577;28;45561;-72
2022/04/03 00:40:15;;;;;;;;;17.00;15.25;;;;;8.01;39.20;101739.38;5014913;28;45726;-72
2022/04/03 00:42:41;;;;;;;;;13.75;13.75;;;;;7.97;39.32;101738.31;5014972;28;45495;-73
2022/04/03 00:45:07;;;;;;;;;12.00;11.00;;;;;7.76;39.46;101716.81;5014813;28;45407;-73
2022/04/03 00:47:33;;;;;;;;;15.00;15.00;;;;;7.79;39.42;101727.59;5018180;28;45471;-73
2022/04/03 00:49:59;;;;;;;;;16.00;13.25;;;;;7.85;39.61;101735.00;5014122;28;45474;-73
2022/04/03 00:52:25;;;;;;;;;14.75;10.50;;;;;7.62;39.31;101709.81;5014752;28;45356;-73
2022/04/03 00:54:51;;;;;;;;;15.75;15.75;;;;;7.80;39.69;101737.41;5017470;28;45551;-73
2022/04/03 00:57:18;;;;;;;;;12.75;12.75;;;;;7.77;39.67;101734.59;5014491;28;45320;-73
2022/04/03 00:59:44;;;;;;;;;15.50;14.75;;;;;7.17;40.37;101635.63;5030901;28;45618;-72
2022/04/03 01:02:10;;;;;;;;;13.75;12.00;;;;;7.75;39.48;101725.59;5015856;28;45534;-73
2022/04/03 01:04:40;;;;;;;;;18.00;15.00;;;;;7.81;39.95;101735.66;5024681;28;45351;-73
2022/04/03 01:07:06;;;;;;;;;11.50;9.50;;;;;7.77;39.49;101733.66;5019282;28;45510;-73
2022/04/03 01:09:32;;;;;;;;;14.50;13.75;;;;;7.82;40.10;101730.44;5029622;28;45419;-73
2022/04/03 01:11:58;;;;;;;;;17.00;17.00;;;;;7.57;39.82;101682.97;5033495;28;45328;-72
2022/04/03 01:14:34;;;;;;;;;17.00;15.00;;;;;7.62;40.27;101689.44;5012925;28;45807;-73
2022/04/03 01:16:59;;;;;;;;;15.50;13.75;;;;;7.70;39.65;101698.75;5015518;28;46511;-73
2022/04/03 01:19:25;;;;;;;;;13.75;12.00;;;;;7.76;39.46;101727.44;5028745;28;45646;-73
2022/04/03 01:21:50;;;;;;;;;16.00;15.75;;;;;7.28;40.01;101658.41;5014232;28;45524;-73
2022/04/03 01:24:20;;;;;;;;;9.75;9.75;;;;;7.65;40.25;101729.50;5018806;28;45581;-73
2022/04/03 01:26:47;;;;;;;;;22.25;16.25;;;;;7.65;40.65;101736.59;5029799;28;45746;-73
2022/04/03 01:29:12;;;;;;;;;22.25;13.00;;;;;7.46;40.27;101687.72;5015649;28;45707;-73
2022/04/03 01:31:37;;;;;;;;;19.25;13.00;;;;;7.42;40.26;101683.06;5024606;28;45363;-73
2022/04/03 01:34:03;;;;;;;;;11.50;8.50;;;;;7.70;40.95;101735.09;5035267;28;45101;-73
2022/04/03 01:36:29;;;;;;;;;26.75;16.75;;;;;7.62;40.32;101718.69;5015069;28;45471;-73
2022/04/03 01:38:54;;;;;;;;;16.50;14.50;;;;;7.72;40.97;101722.78;5019829;28;46344;-72
2022/04/03 01:41:20;;;;;;;;;13.25;10.00;;;;;7.73;40.54;101727.28;5016521;28;45309;-72
2022/04/03 01:43:45;;;;;;;;;10.00;10.00;;;;;7.76;40.97;101722.13;5021708;28;45674;-73
2022/04/03 01:46:10;;;;;;;;;11.50;11.50;;;;;7.68;40.22;101718.13;5019392;28;46080;-73
2022/04/03 01:48:36;;;;;;;;;14.50;14.50;;;;;7.76;40.91;101724.78;4996150;28;45649;-73
2022/04/03 01:51:01;;;;;;;;;9.00;9.00;;;;;7.81;40.46;101725.03;5017950;28;45569;-73
2022/04/03 01:53:27;;;;;;;;;10.00;10.00;;;;;7.60;40.71;101688.47;5013903;28;45391;-74
2022/04/03 01:56:00;;;;;;;;;17.25;16.00;;;;;7.86;40.63;101727.09;5013848;28;45562;-72
2022/04/03 01:58:26;;;;;;;;;15.25;12.00;;;;;7.86;40.81;101724.44;5013832;28;45434;-73
2022/04/03 02:00:51;;;;;;;;;13.50;10.75;;;;;7.86;41.03;101724.44;5024426;28;45625;-73
2022/04/03 02:03:17;;;;;;;;;17.50;10.50;;;;;7.78;40.53;101720.44;5017592;28;45461;-73
2022/04/03 02:05:43;;;;;;;;;17.50;10.25;;;;;7.82;40.66;101735.75;5013735;28;45495;-73
2022/04/03 02:08:08;;;;;;;;;12.25;10.25;;;;;7.61;40.64;101695.63;5007316;28;45475;-72
2022/04/03 02:10:34;;;;;;;;;9.00;8.00;;;;;7.82;41.26;101725.13;5014658;28;45693;-73
2022/04/03 02:12:59;;;;;;;;;11.50;11.25;;;;;7.78;40.91;101724.88;5018461;28;45491;-74
2022/04/03 02:15:27;;;;;;;;;14.25;12.00;;;;;7.57;41.11;101681.25;5036975;28;46194;-73
2022/04/03 02:17:52;;;;;;;;;12.75;11.00;;;;;7.83;41.24;101729.59;5027510;28;45825;-73
2022/04/03 02:20:17;;;;;;;;;14.50;11.00;;;;;7.74;40.76;101705.16;5017611;28;45504;-73
2022/04/03 02:22:43;;;;;;;;;11.25;9.50;;;;;7.86;41.09;101713.78;5027808;28;45357;-72
2022/04/03 02:25:13;;;;;;;;;11.00;9.25;;;;;7.72;40.76;101699.75;5024721;28;45678;-73
2022/04/03 02:27:39;;;;;;;;;12.25;10.00;;;;;7.72;41.01;101704.16;5020067;28;45473;-72
2022/04/03 02:30:08;;;;;;;;;18.25;12.50;;;;;7.62;40.91;101689.44;5028868;28;45396;-73
2022/04/03 02:32:35;;;;;;;;;4.50;3.25;;;;;7.46;41.73;101669.13;5012185;28;45555;-73
2022/04/03 02:35:00;;;;;;;;;11.00;11.00;;;;;7.72;40.79;101726.38;5034922;28;46082;-72
2022/04/03 02:37:25;;;;;;;;;14.75;12.50;;;;;7.47;41.31;101676.25;5025831;28;45461;-73
2022/04/03 02:39:51;;;;;;;;;13.50;10.25;;;;;7.59;41.21;101694.63;5029472;28;45539;-73
2022/04/03 02:42:19;;;;;;;;;10.50;9.75;;;;;7.76;41.17;101724.78;5018585;28;45697;-73
2022/04/03 02:44:44;;;;;;;;;12.25;10.75;;;;;7.78;41.64;101731.09;5018206;28;46494;-73
2022/04/03 02:47:11;;;;;;;;;11.00;11.00;;;;;7.61;41.68;101702.69;5017072;28;45490;-73
2022/04/03 02:49:36;;;;;;;;;10.00;9.00;;;;;7.74;41.50;101718.47;5018346;28;45578;-73
2022/04/03 02:52:02;;;;;;;;;15.00;15.00;;;;;7.77;41.75;101723.97;5019423;28;45213;-73
2022/04/03 02:54:27;;;;;;;;;11.75;9.25;;;;;7.73;41.28;101714.88;5012105;28;47577;-73
2022/04/03 02:56:52;;;;;;;;;11.75;10.00;;;;;7.72;41.47;101723.72;5016147;28;45494;-73
2022/04/03 02:59:18;;;;;;;;;10.25;10.25;;;;;7.63;41.92;101716.97;5022034;28;45388;-73
2022/04/03 03:01:43;;;;;;;;;14.25;10.50;;;;;7.72;41.73;101728.09;5008383;28;45738;-72
2022/04/03 03:04:09;;;;;;;;;11.50;11.00;;;;;7.66;41.88;101733.09;5025320;28;45403;-73
2022/04/03 03:06:34;;;;;;;;;11.00;10.00;;;;;7.53;41.51;101716.47;5025967;28;45483;-73
2022/04/03 03:09:00;;;;;;;;;15.50;10.75;;;;;7.68;41.75;101734.09;5016364;28;45384;-72
2022/04/03 03:11:25;;;;;;;;;14.25;13.25;;;;;7.64;41.50;101738.34;5016658;28;45674;-73
2022/04/03 03:13:50;;;;;;;;;13.50;13.50;;;;;7.54;42.12;101715.66;5016152;28;45563;-73
2022/04/03 03:16:15;;;;;;;;;15.25;8.75;;;;;7.67;42.44;101742.88;5016369;28;45368;-73
2022/04/03 03:18:42;;;;;;;;;9.25;4.00;;;;;7.41;41.93;101704.25;5016202;28;45351;-73
2022/04/03 03:21:07;;;;;;;;;13.25;11.00;;;;;7.65;41.45;101748.13;5016589;28;45668;-73
2022/04/03 03:23:33;;;;;;;;;14.75;14.25;;;;;7.66;41.92;101749.97;5017194;28;45586;-72
2022/04/03 03:25:58;;;;;;;;;11.75;10.25;;;;;7.68;41.88;101750.06;4998147;28;45303;-73
2022/04/03 03:28:24;;;;;;;;;14.50;13.25;;;;;7.70;42.24;101745.72;5016186;28;45368;-73
2022/04/03 03:30:49;;;;;;;;;12.50;12.50;;;;;7.67;41.94;101748.22;5016382;28;45648;-73
2022/04/03 03:33:14;;;;;;;;;9.75;9.00;;;;;7.43;41.98;101713.25;5027887;28;49726;-73
2022/04/03 03:35:40;;;;;;;;;14.25;10.75;;;;;7.67;41.73;101756.19;5034951;28;45711;-73
2022/04/03 03:38:05;;;;;;;;;13.00;11.00;;;;;7.64;41.45;101754.28;5035142;28;45509;-73
2022/04/03 03:40:31;;;;;;;;;9.75;7.75;;;;;7.08;41.67;101664.34;5021008;28;45416;-73
2022/04/03 03:42:56;;;;;;;;;9.50;8.00;;;;;7.43;42.14;101742.50;5023695;28;46323;-72
2022/04/03 03:45:22;;;;;;;;;8.75;8.00;;;;;7.52;41.98;101757.22;5016888;28;45358;-73
2022/04/03 03:47:48;;;;;;;;;15.75;11.50;;;;;7.41;42.29;101734.44;5018042;28;45663;-73
2022/04/03 03:50:15;;;;;;;;;11.75;10.00;;;;;7.53;42.03;101758.09;5016037;28;45525;-73
2022/04/03 03:52:41;;;;;;;;;11.50;10.25;;;;;7.44;42.34;101761.19;5015993;28;46184;-72
2022/04/03 03:55:08;;;;;;;;;12.75;11.50;;;;;7.40;42.54;101763.59;5019033;28;45485;-72
2022/04/03 03:57:33;;;;;;;;;9.00;9.00;;;;;7.32;42.44;101758.72;5027774;28;45663;-73
2022/04/03 03:59:58;;;;;;;;;10.50;9.75;;;;;7.28;42.66;101753.19;5019718;28;45560;-73
2022/04/03 04:02:24;;;;;;;;;9.00;9.00;;;;;7.28;42.82;101769.13;5006639;28;45899;-73
2022/04/03 04:04:49;;;;;;;;;10.00;7.00;;;;;7.30;42.74;101763.06;5001242;28;45317;-72
2022/04/03 04:07:14;;;;;;;;;14.50;13.00;;;;;7.30;42.46;101755.09;5015512;28;45337;-72
2022/04/03 04:09:41;;;;;;;;;10.25;9.00;;;;;7.12;42.97;101733.69;5015820;28;45495;-73
2022/04/03 04:12:09;;;;;;;;;14.00;9.00;;;;;7.16;42.71;101729.47;5019581;28;46600;-73
2022/04/03 04:14:35;;;;;;;;;16.25;10.50;;;;;7.26;42.48;101747.78;5028336;28;45327;-72
2022/04/03 04:17:01;;;;;;;;;10.25;8.00;;;;;7.25;42.56;101761.88;5015277;28;45485;-73
2022/04/03 04:19:26;;;;;;;;;9.00;9.00;;;;;7.26;42.56;101763.72;5018223;28;45524;-73
2022/04/03 04:21:52;;;;;;;;;10.25;8.75;;;;;6.98;42.68;101716.09;5020690;28;46459;-74
2022/04/03 04:24:18;;;;;;;;;11.50;9.25;;;;;7.22;42.64;101758.16;5018226;28;45368;-72
2022/04/03 04:26:43;;;;;;;;;10.75;9.50;;;;;7.02;42.72;101726.03;5016526;28;45575;-73
2022/04/03 04:29:09;;;;;;;;;12.75;10.00;;;;;7.17;42.60;101763.19;5018537;28;45603;-74
2022/04/03 04:31:34;;;;;;;;;13.75;10.75;;;;;7.08;42.95;101752.97;5021443;28;46137;-74
2022/04/03 04:33:59;;;;;;;;;10.00;8.00;;;;;7.18;43.04;101765.94;5035454;28;45523;-74
2022/04/03 04:36:26;;;;;;;;;9.75;9.75;;;;;7.11;43.32;101765.50;5036300;28;45245;-73
2022/04/03 04:38:52;;;;;;;;;14.00;11.50;;;;;6.95;43.42;101754.00;5033763;28;45486;-73
2022/04/03 04:41:17;;;;;;;;;11.75;9.50;;;;;6.91;42.86;101746.69;5031346;28;46329;-74
2022/04/03 04:43:42;;;;;;;;;10.75;9.25;;;;;6.97;43.26;101788.63;5034048;28;45421;-73
2022/04/03 04:46:08;;;;;;;;;16.00;14.00;;;;;6.87;43.64;101775.66;5033070;28;45555;-73
2022/04/03 04:48:34;;;;;;;;;11.00;8.50;;;;;6.62;44.05;101743.28;5031285;28;45930;-73
2022/04/03 04:51:01;;;;;;;;;11.25;11.00;;;;;6.84;43.52;101784.34;5019910;28;47352;-73
2022/04/03 04:53:26;;;;;;;;;12.00;11.25;;;;;6.86;43.63;101793.31;5014719;28;45687;-73
2022/04/03 04:55:52;;;;;;;;;11.50;8.00;;;;;6.86;43.76;101793.31;5015983;28;45395;-73
2022/04/03 04:58:17;;;;;;;;;16.75;9.50;;;;;6.83;43.93;101798.47;5020620;28;45485;-74
2022/04/03 05:00:43;;;;;;;;;10.25;8.00;;;;;6.81;43.99;101802.75;5023733;28;48441;-72
2022/04/03 05:03:08;;;;;;;;;11.50;11.50;;;;;6.66;43.98;101781.53;5017487;28;45334;-73
2022/04/03 05:05:34;;;;;;;;;16.75;11.00;;;;;6.77;43.90;101808.75;5019984;28;45702;-72
2022/04/03 05:08:00;;;;;;;;;13.00;10.25;;;;;6.56;43.92;101782.72;5029472;28;45533;-74
2022/04/03 05:10:26;;;;;;;;;15.25;13.25;;;;;6.72;43.94;101820.84;5031011;28;46891;-73
2022/04/03 05:12:55;;;;;;;;;10.00;8.50;;;;;6.64;43.74;101810.66;5016081;28;45777;-73
2022/04/03 05:15:21;;;;;;;;;14.75;11.25;;;;;6.63;43.97;101813.22;5025879;28;45569;-73
2022/04/03 05:17:46;;;;;;;;;8.00;7.00;;;;;6.49;43.83;101793.81;5009490;28;45718;-73
2022/04/03 05:20:13;;;;;;;;;9.25;9.25;;;;;6.56;44.17;101816.34;5031756;28;47065;-73
2022/04/03 05:22:43;;;;;;;;;10.00;8.75;;;;;6.54;44.35;101815.34;5014730;28;45392;-72
2022/04/03 05:25:13;;;;;;;;;9.00;9.00;;;;;6.50;44.24;101816.91;5014445;28;45632;-72
2022/04/03 05:27:40;;;;;;;;;12.50;11.50;;;;;6.30;43.68;101794.44;5030637;28;45485;-73
2022/04/03 05:30:06;;;;;;;;;9.25;9.25;;;;;6.18;43.93;101802.56;5020675;28;46163;-73
2022/04/03 05:32:32;;;;;;;;;15.00;11.50;;;;;6.27;44.56;101827.03;5014264;28;45529;-73
2022/04/03 05:34:59;;;;;;;;;11.50;9.00;;;;;6.23;44.41;101832.06;5014050;28;45628;-73
2022/04/03 05:37:24;;;;;;;;;10.25;8.50;;;;;6.22;44.77;101830.22;5014615;28;45719;-73
2022/04/03 05:39:53;;;;;;;;;13.75;11.00;;;;;6.19;44.26;101841.56;5014113;28;45503;-72
2022/04/03 05:42:20;;;;;;;;;9.50;9.50;;;;;5.80;44.78;101768.38;5017912;28;45413;-73
2022/04/03 05:44:45;;;;;;;;;14.25;12.00;;;;;6.16;44.33;101840.47;5023322;28;45702;-72
2022/04/03 05:47:11;;;;;;;;;14.50;11.00;;;;;5.99;44.70;101813.81;5017937;28;45494;-73
2022/04/03 05:49:37;;;;;;;;;8.75;8.00;;;;;6.01;44.58;101830.72;5032306;28;46032;-73
2022/04/03 05:52:03;;;;;;;;;12.00;8.00;;;;;5.95;44.37;101817.03;5019175;28;46253;-73
2022/04/03 05:54:28;;;;;;;;;10.25;10.25;;;;;5.64;44.90;101755.88;5034666;28;45668;-73
2022/04/03 05:56:53;;;;;;;;;13.50;9.50;;;;;6.04;44.07;101828.28;5036988;28;45508;-73
2022/04/03 05:59:19;;;;;;;;;14.25;12.50;;;;;5.97;44.66;101828.69;5036944;28;45435;-73
2022/04/03 06:01:46;;;;;;;;;12.25;10.75;;;;;6.13;43.93;101849.13;5036752;28;45490;-73
2022/04/03 06:04:11;;;;;;;;;8.00;8.00;;;;;6.00;44.00;101827.97;5031081;28;45762;-73
2022/04/03 06:06:37;;;;;;;;;12.75;9.50;;;;;6.07;43.91;101857.66;5017231;28;45514;-71
2022/04/03 06:09:02;;;;;;;;;12.00;12.00;;;;;5.55;44.17;101753.56;4999310;28;46437;-72
2022/04/03 06:11:27;;;;;;;;;9.00;9.00;;;;;6.12;43.82;101854.34;5029019;28;45694;-72
2022/04/03 06:13:53;;;;;;;;;9.00;8.00;;;;;5.89;44.11;101808.72;5021717;28;45561;-73
2022/04/03 06:16:18;;;;;;;;;15.00;10.75;;;;;6.04;43.67;101846.84;5025563;28;45442;-72
2022/04/03 06:18:43;;;;;;;;;12.00;12.00;;;;;6.00;43.65;101836.84;5015681;28;47019;-73
2022/04/03 06:21:09;;;;;;;;;10.75;8.25;;;;;5.90;44.11;101832.66;5020920;28;45592;-72
2022/04/03 06:23:34;;;;;;;;;10.75;8.25;;;;;5.92;43.88;101832.75;5022751;28;45510;-73
2022/04/03 06:26:00;;;;;;;;;12.75;9.25;;;;;6.14;44.12;101876.56;5033098;28;45500;-73
2022/04/03 06:28:25;;;;;;;;;17.75;10.50;;;;;6.11;43.88;101872.00;5040290;28;46107;-73
2022/04/03 06:30:52;;;;;;;;;10.50;10.50;;;;;6.04;43.99;101862.75;5035907;28;45447;-73
2022/04/03 06:33:18;;;;;;;;;14.75;9.75;;;;;6.08;43.60;101882.44;5018030;28;45250;-72
2022/04/03 06:35:44;;;;;;;;;10.25;10.25;;;;;5.71;43.33;101824.41;5018261;28;45529;-72
2022/04/03 06:38:10;;;;;;;;;11.00;10.25;;;;;6.02;44.20;101874.09;5024044;28;46277;-73
2022/04/03 06:40:37;;;;;;;;;13.00;9.00;;;;;5.76;44.21;101836.22;5029335;28;45554;-73
2022/04/03 06:43:02;;;;;;;;;12.25;10.75;;;;;5.94;43.93;101873.59;5021862;28;45636;-73
2022/04/03 06:45:28;;;;;;;;;11.50;10.25;;;;;6.07;43.74;101893.84;5016996;28;45443;-72
2022/04/03 06:47:57;;;;;;;;;12.25;9.75;;;;;5.94;43.70;101868.28;5019196;28;46018;-73
2022/04/03 06:50:23;;;;;;;;;12.75;10.00;;;;;6.05;43.12;101892.84;5019045;28;45455;-73
2022/04/03 06:52:48;;;;;;;;;16.25;12.00;;;;;6.09;43.61;101895.78;5018878;28;45612;-72
2022/04/03 06:55:14;;;;;;;;;8.00;6.75;;;;;6.05;43.47;101877.84;5000817;28;45510;-73
2022/04/03 06:57:39;;;;;;;;;7.50;7.50;;;;;6.19;43.79;101891.97;5031301;28;46761;-73
2022/04/03 07:00:07;;;;;;;;;8.75;8.75;;;;;6.23;42.78;101899.31;5036975;28;45470;-73
2022/04/03 07:02:33;;;;;;;;;13.00;9.50;;;;;6.25;43.23;101905.66;5026621;28;45601;-73
2022/04/03 07:04:58;;;;;;;;;14.75;10.00;;;;;6.12;42.85;101871.22;5019179;28;45660;-73
2022/04/03 07:07:25;;;;;;;;;7.75;7.75;;;;;6.25;42.92;101889.72;5036725;28;46069;-73
2022/04/03 07:09:52;;;;;;;;;10.25;8.75;;;;;6.36;42.55;101902.72;5036082;28;45440;-73
2022/04/03 07:12:18;;;;;;;;;9.75;8.25;;;;;6.39;41.85;101908.25;5021085;28;45551;-73
2022/04/03 07:14:44;;;;;;;;;11.25;10.75;;;;;6.38;41.57;101917.91;5022267;28;46105;-73
2022/04/03 07:17:09;;;;;;;;;12.75;9.50;;;;;6.31;41.75;101913.06;5033793;28;45469;-72
2022/04/03 07:19:34;;;;;;;;;10.50;8.25;;;;;6.12;42.12;101894.16;5040731;28;45155;-73
2022/04/03 07:22:00;;;;;;;;;10.50;10.25;;;;;5.69;42.25;101826.94;5047498;28;45276;-72
2022/04/03 07:24:26;;;;;;;;;9.75;8.00;;;;;5.85;42.50;101849.13;5037129;28;45304;-72
2022/04/03 07:26:53;;;;;;;;;11.25;8.00;;;;;6.12;42.24;101892.44;5033289;28;45329;-73
2022/04/03 07:29:20;;;;;;;;;12.75;10.50;;;;;6.15;42.30;101892.59;5023828;28;45466;-73
2022/04/03 07:31:45;;;;;;;;;11.00;11.00;;;;;6.35;42.97;101917.75;5024569;28;45475;-72
2022/04/03 07:34:11;;;;;;;;;12.25;10.00;;;;;6.37;42.47;101901.88;5021966;28;45524;-73
2022/04/03 07:36:37;;;;;;;;;19.00;14.75;;;;;6.47;41.69;101914.94;5004041;28;46050;-73
2022/04/03 07:39:02;;;;;;;;;13.75;11.75;;;;;6.14;42.11;101855.34;5006579;28;45707;-72
2022/04/03 07:41:28;;;;;;;;;11.00;10.25;;;;;6.61;41.47;101929.03;5020221;28;45526;-72
2022/04/03 07:43:53;;;;;;;;;13.00;8.75;;;;;6.63;41.34;101912.41;5022209;28;45525;-73
2022/04/03 07:46:18;;;;;;;;;8.50;8.50;;;;;6.69;40.91;101902.97;5020128;28;45502;-73
2022/04/03 07:48:44;;;;;;;;;14.75;9.00;;;;;6.84;40.96;101925.13;5022844;28;45397;-73
2022/04/03 07:51:11;;;;;;;;;15.75;13.25;;;;;6.87;40.95;101925.31;5019314;28;45344;-72
2022/04/03 07:53:37;;;;;;;;;9.25;9.25;;;;;6.90;40.29;101906.00;5015450;28;45596;-73
2022/04/03 07:56:05;;;;;;;;;13.00;10.00;;;;;6.82;40.22;101882.53;5015053;28;46711;-73
2022/04/03 07:58:39;;;;;;;;;15.25;15.25;;;;;6.84;40.32;101887.94;5009065;28;45548;-73
2022/04/03 08:01:04;;;;;;;;;12.50;9.50;;;;;7.17;40.39;101930.63;5023120;28;45476;-73
2022/04/03 08:03:30;;;;;;;;;12.00;9.00;;;;;7.20;39.70;101933.47;5025256;28;45438;-72
2022/04/03 08:05:56;;;;;;;;;9.75;9.50;;;;;7.18;39.44;101925.41;5026255;28;46465;-73
2022/04/03 08:08:21;;;;;;;;;10.00;8.25;;;;;7.31;39.42;101934.09;5023440;28;45384;-72
2022/04/03 08:10:47;;;;;;;;;10.50;8.00;;;;;7.32;39.79;101934.19;5015338;28;45443;-73
2022/04/03 08:13:14;;;;;;;;;16.50;9.75;;;;;7.39;39.25;101940.78;5015175;28;45624;-72
2022/04/03 08:15:40;;;;;;;;;10.00;9.00;;;;;7.14;38.75;101888.88;5014455;28;46082;-73
2022/04/03 08:18:06;;;;;;;;;38.25;28.50;;;;;7.24;38.58;101892.94;5014443;28;45544;-73
2022/04/03 08:20:31;;;;;;;;;7.25;7.25;;;;;7.48;38.26;101928.03;5016930;28;45493;-74
2022/04/03 08:22:58;;;;;;;;;12.25;9.75;;;;;7.68;38.81;101941.56;5020324;28;45529;-72
2022/04/03 08:25:23;;;;;;;;;8.25;8.25;;;;;7.75;38.08;101935.75;5033604;28;45561;-74
2022/04/03 08:27:50;;;;;;;;;11.25;7.00;;;;;7.88;37.87;101938.28;5037097;28;45419;-73
2022/04/03 08:30:24;;;;;;;;;7.50;5.00;;;;;7.98;38.18;101941.47;5033654;28;45493;-74
2022/04/03 08:32:49;;;;;;;;;6.50;6.50;;;;;7.86;37.52;101917.75;5033931;28;46073;-73
2022/04/03 08:35:16;;;;;;;;;5.00;5.00;;;;;8.05;36.65;101939.25;5028488;28;46201;-72
2022/04/03 08:37:42;;;;;;;;;8.50;6.50;;;;;8.14;37.30;101935.25;4996777;28;45550;-73
2022/04/03 08:40:09;;;;;;;;;7.00;4.25;;;;;8.23;36.88;101928.69;5014307;28;45402;-71
2022/04/03 08:42:35;;;;;;;;;8.75;7.00;;;;;8.31;36.56;101939.75;5007828;28;45489;-73
2022/04/03 08:45:00;;;;;;;;;9.75;8.00;;;;;8.40;36.59;101944.69;5007221;28;47905;-74
2022/04/03 08:47:28;;;;;;;;;11.00;9.25;;;;;8.46;36.32;101943.31;5014470;28;45372;-72
2022/04/03 08:49:59;;;;;;;;;10.50;8.75;;;;;8.44;35.82;101933.38;5006585;28;45605;-72
2022/04/03 08:52:27;;;;;;;;;8.25;8.25;;;;;8.52;35.69;101948.03;5028013;28;45411;-73
2022/04/03 08:54:53;;;;;;;;;5.25;5.25;;;;;7.98;36.18;101843.00;5015595;28;46183;-73
2022/04/03 08:57:18;;;;;;;;;8.75;6.00;;;;;8.58;35.49;101943.03;5014181;28;45805;-74
2022/04/03 08:59:45;;;;;;;;;11.50;7.75;;;;;8.64;34.92;101948.66;5005795;28;45478;-73
2022/04/03 09:02:13;;;;;;;;;7.50;6.50;;;;;8.73;35.62;101950.94;5027026;28;45646;-74
2022/04/03 09:04:39;;;;;;;;;9.00;9.00;;;;;8.63;34.77;101909.56;5020112;28;46224;-73
2022/04/03 09:07:06;;;;;;;;;12.25;8.50;;;;;9.03;34.39;101940.06;5013481;28;45415;-74
2022/04/03 09:09:31;;;;;;;;;9.00;7.25;;;;;9.13;34.42;101941.44;5014145;28;45328;-74
2022/04/03 09:12:15;;;;;;;;;5.50;5.50;;;;;9.23;33.55;101941.06;5014485;28;45570;-73
2022/04/03 09:14:49;;;;;;;;;5.50;3.75;;;;;9.37;33.21;101945.38;5029014;28;46282;-73
2022/04/03 09:17:38;;;;;;;;;10.50;8.75;;;;;9.37;33.74;101892.00;5032865;28;45521;-73
2022/04/03 09:20:09;;;;;;;;;7.50;5.00;;;;;10.39;30.84;101938.69;5032937;28;45658;-74
2022/04/03 09:22:37;;;;;;;;;10.00;9.00;;;;;11.32;30.24;101928.56;5036429;28;45411;-74
2022/04/03 09:25:09;;;;;;;;;4.75;4.75;;;;;11.92;27.31;101922.09;5034831;28;47845;-75
2022/04/03 09:27:44;;;;;;;;;16.00;8.25;;;;;12.15;27.20;101925.66;5031399;28;45509;-72
2022/04/03 09:30:10;;;;;;;;;11.75;9.00;;;;;12.48;26.53;101926.03;5016734;28;45337;-76
2022/04/03 09:32:45;;;;;;;;;7.75;7.00;;;;;12.36;25.32;101885.38;4999584;28;45591;-74
2022/04/03 09:35:11;;;;;;;;;8.75;8.25;;;;;12.45;24.91;101912.50;5030498;28;46366;-74
2022/04/03 09:37:36;;;;;;;;;7.25;7.25;;;;;12.34;24.90;101925.53;5036129;28;45357;-74
2022/04/03 09:40:03;;;;;;;;;8.00;8.00;;;;;12.17;24.97;101924.84;5036641;28;45407;-73
2022/04/03 09:42:29;;;;;;;;;45.50;32.25;;;;;12.04;24.95;101921.66;5023527;28;45371;-74
2022/04/03 09:44:55;;;;;;;;;16.00;14.25;;;;;11.77;24.77;101911.66;5014939;28;47968;-74
2022/04/03 09:47:32;;;;;;;;;4.75;3.50;;;;;11.77;24.10;101915.22;5009580;28;45494;-75
2022/04/03 09:50:06;;;;;;;;;5.00;3.00;;;;;11.55;24.81;101900.06;5017035;28;45296;-74
2022/04/03 09:52:38;;;;;;;;;6.00;5.00;;;;;11.66;24.88;101923.69;5017279;28;45422;-75
2022/04/03 09:55:12;;;;;;;;;5.00;5.00;;;;;11.66;24.80;101924.56;5016474;28;46266;-75
2022/04/03 09:57:38;;;;;;;;;5.00;5.00;;;;;11.53;25.05;101912.47;5016461;28;45378;-74
2022/04/03 10:00:05;;;;;;;;;3.25;3.25;;;;;11.66;24.72;101923.69;5012296;28;45526;-76
2022/04/03 10:02:31;;;;;;;;;3.00;2.00;;;;;11.14;25.01;101843.09;5016948;28;45508;-75
2022/04/03 10:04:56;;;;;;;;;5.25;3.00;;;;;11.62;24.81;101923.53;5016230;28;45732;-75
2022/04/03 10:07:23;;;;;;;;;8.75;5.75;;;;;11.56;25.21;101919.72;5016963;28;45552;-74
2022/04/03 10:09:51;;;;;;;;;7.75;3.00;;;;;11.43;25.17;101911.19;4998544;28;45556;-74
2022/04/03 10:12:21;;;;;;;;;8.00;8.00;;;;;11.46;25.43;101920.19;5017011;28;45581;-74
2022/04/03 10:14:49;;;;;;;;;10.50;7.75;;;;;11.08;24.99;101866.88;5016374;28;46649;-73
2022/04/03 10:17:16;;;;;;;;;7.75;6.25;;;;;11.40;25.03;101916.41;5016596;28;45561;-73
2022/04/03 10:19:42;;;;;;;;;1.00;1.00;;;;;11.51;24.82;101930.22;5020088;28;45507;-75
2022/04/03 10:22:13;;;;;;;;;0.50;0.50;;;;;11.27;24.69;101879.28;5017253;28;46008;-76
2022/04/03 10:24:42;;;;;;;;;3.00;2.25;;;;;11.54;24.99;101926.78;5016203;28;45289;-73
2022/04/03 10:27:12;;;;;;;;;4.00;2.50;;;;;11.31;24.42;101897.28;5016322;28;45488;-75
2022/04/03 10:29:39;;;;;;;;;2.25;2.25;;;;;11.51;25.54;101919.50;5016350;28;45500;-75
2022/04/03 10:32:06;;;;;;;;;3.00;3.00;;;;;11.61;25.17;101919.06;5030999;28;45402;-73
2022/04/03 10:34:45;;;;;;;;;4.00;3.00;;;;;11.47;24.88;101877.44;5017259;28;48035;-74
2022/04/03 10:37:31;;;;;;;;;2.50;2.50;;;;;11.66;25.26;101916.56;5033680;28;45608;-74
2022/04/03 10:40:17;;;;;;;;;3.00;1.25;;;;;11.49;25.67;101889.09;5035329;28;45565;-73
2022/04/03 10:42:55;;;;;;;;;1.75;1.75;;;;;11.69;25.36;101911.31;5035624;28;45371;-74
2022/04/03 10:45:49;;;;;;;;;2.50;2.50;;;;;11.74;25.15;101899.03;5034123;28;46454;-73
2022/04/03 10:48:23;;;;;;;;;2.00;2.00;;;;;11.74;24.64;101904.38;5035646;28;45504;-73
2022/04/03 10:51:07;;;;;;;;;3.50;3.00;;;;;11.71;24.81;101887.28;5037439;28;45233;-74
2022/04/03 10:53:36;;;;;;;;;2.00;2.00;;;;;11.73;24.78;101889.19;5020106;28;45851;-74
2022/04/03 10:56:10;;;;;;;;;2.25;2.25;;;;;11.71;25.29;101876.59;5036674;28;47152;-73
2022/04/03 10:58:41;;;;;;;;;3.00;3.00;;;;;11.94;25.92;101897.16;5019799;28;45548;-74
2022/04/03 11:01:11;;;;;;;;;38.00;27.75;;;;;11.97;25.38;101894.63;5034870;28;45561;-74
2022/04/03 11:03:37;;;;;;;;;3.25;3.25;;;;;11.86;25.81;101879.84;5035462;28;45516;-74
2022/04/03 11:06:20;;;;;;;;;3.00;3.00;;;;;11.80;25.12;101871.59;5016520;28;47269;-75
2022/04/03 11:09:05;;;;;;;;;5.00;5.00;;;;;11.48;25.02;101828.38;5017361;28;45741;-76
2022/04/03 11:11:48;;;;;;;;;5.00;4.00;;;;;11.62;25.32;101855.72;5002445;28;45419;-73
2022/04/03 11:14:50;;;;;;;;;4.25;3.25;;;;;11.27;25.49;101787.41;5012085;28;45655;-74
2022/04/03 11:17:16;;;;;;;;;5.75;3.50;;;;;11.41;24.55;101807.59;5027618;28;47101;-73
2022/04/03 11:19:44;;;;;;;;;6.50;5.00;;;;;11.76;25.18;101867.91;5034422;28;45624;-72
2022/04/03 11:22:16;;;;;;;;;5.25;4.50;;;;;11.81;24.87;101878.75;5034567;28;45786;-72